Time;durP1;ratioP1;P1;durP2;ratioP2;P2;SDS_P1;SDS_P2;PMS_P1;PMS_P2;Temp;Humidity;BMP_temperature;BMP_pressure;BME280_temperature;BME280_humidity;BME280_pressure;Samples;Min_cycle;Max_cycle;Signal;HPM_P1;HPM_P2
2023/03/07 00:02:14;;;;;;;14.03;9.23;;;;;;;3.74;100.00;95192.47;4969743;28;105228;-59
2023/03/07 00:04:45;;;;;;;13.77;9.63;;;;;;;3.76;100.00;95190.38;4969454;28;106286;-59
2023/03/07 00:07:12;;;;;;;14.87;9.43;;;;;;;3.77;100.00;95185.94;4971813;28;102244;-59
2023/03/07 00:09:39;;;;;;;13.47;9.07;;;;;;;3.79;100.00;95191.72;4974098;28;102286;-59
2023/03/07 00:12:09;;;;;;;13.00;9.70;;;;;;;3.75;100.00;95191.41;4971589;28;101807;-59
2023/03/07 00:14:36;;;;;;;11.43;8.40;;;;;;;3.78;100.00;95195.41;4971605;28;102340;-59
2023/03/07 00:17:03;;;;;;;10.83;8.30;;;;;;;3.79;100.00;95191.72;4971018;28;102625;-59
2023/03/07 00:19:30;;;;;;;10.57;8.77;;;;;;;3.77;100.00;95201.72;4970070;28;101937;-59
2023/03/07 00:21:57;;;;;;;11.67;8.60;;;;;;;3.74;100.00;95194.28;4971153;28;102373;-59
2023/03/07 00:24:23;;;;;;;13.50;8.67;;;;;;;3.75;100.00;95190.59;4969251;28;105240;-59
2023/03/07 00:26:50;;;;;;;12.57;8.90;;;;;;;3.78;100.00;95192.78;4971674;28;101766;-59
2023/03/07 00:29:19;;;;;;;11.90;8.63;;;;;;;3.82;100.00;95191.28;4969585;28;105456;-59
2023/03/07 00:31:46;;;;;;;11.77;8.53;;;;;;;3.79;100.00;95191.72;4972755;28;105442;-59
2023/03/07 00:34:13;;;;;;;13.10;8.70;;;;;;;3.76;100.00;95192.22;4969807;28;105199;-59
2023/03/07 00:36:40;;;;;;;13.00;9.10;;;;;;;3.71;100.00;95179.78;4969244;28;105425;-59
2023/03/07 00:39:07;;;;;;;11.50;8.27;;;;;;;3.69;100.00;95181.03;4969594;28;101899;-59
2023/03/07 00:41:34;;;;;;;12.67;8.63;;;;;;;3.65;100.00;95185.19;4969749;28;105737;-59
2023/03/07 00:44:02;;;;;;;12.83;9.23;;;;;;;3.63;100.00;95180.16;4968917;28;105786;-59
2023/03/07 00:46:30;;;;;;;14.37;9.63;;;;;;;3.69;100.00;95181.84;4969947;28;102102;-59
2023/03/07 00:48:57;;;;;;;15.10;9.77;;;;;;;3.66;100.00;95166.53;4971014;28;102304;-59
2023/03/07 00:51:25;;;;;;;13.47;9.03;;;;;;;3.63;100.00;95171.47;4968743;28;105489;-59
2023/03/07 00:53:52;;;;;;;15.17;9.73;;;;;;;3.60;100.00;95169.34;4972777;28;102198;-59
2023/03/07 00:56:22;;;;;;;11.70;9.07;;;;;;;3.65;100.00;95167.59;4970384;28;102706;-59
2023/03/07 00:58:49;;;;;;;11.70;9.20;;;;;;;3.71;100.00;95160.59;4970863;28;101809;-59
2023/03/07 01:01:19;;;;;;;12.13;9.20;;;;;;;3.68;100.00;95159.22;4969066;28;105076;-59
2023/03/07 01:03:48;;;;;;;14.07;9.70;;;;;;;3.61;100.00;95155.94;4968831;28;103434;-59
2023/03/07 01:06:18;;;;;;;12.97;9.13;;;;;;;3.63;100.00;95158.34;4968283;28;101991;-59
2023/03/07 01:08:45;;;;;;;13.77;9.20;;;;;;;3.54;100.00;95146.59;4969309;28;105302;-59
2023/03/07 01:11:14;;;;;;;13.17;8.37;;;;;;;3.54;100.00;95141.34;4968665;28;105803;-59
2023/03/07 01:13:43;;;;;;;14.70;9.70;;;;;;;3.49;100.00;95142.06;4969365;28;101843;-59
2023/03/07 01:16:13;;;;;;;12.40;9.07;;;;;;;3.51;100.00;95137.41;4972178;28;105237;-59
2023/03/07 01:18:42;;;;;;;14.27;9.77;;;;;;;3.51;100.00;95142.66;4969334;28;102169;-59
2023/03/07 01:21:16;;;;;;;14.40;8.70;;;;;;;3.46;100.00;95133.88;4968973;28;105554;-59
2023/03/07 01:23:43;;;;;;;11.47;8.87;;;;;;;3.46;100.00;95131.25;4968458;28;105120;-59
2023/03/07 01:26:15;;;;;;;11.73;8.30;;;;;;;3.46;100.00;95125.97;4969267;28;102037;-59
2023/03/07 01:28:43;;;;;;;11.20;8.53;;;;;;;3.47;100.00;95130.19;4969174;28;105760;-59
2023/03/07 01:31:11;;;;;;;13.67;9.07;;;;;;;3.43;100.00;95123.81;4968431;28;105559;-59
2023/03/07 01:33:39;;;;;;;13.60;8.67;;;;;;;3.41;100.00;95124.06;4968820;28;101948;-59
2023/03/07 01:36:17;;;;;;;11.63;8.50;;;;;;;3.36;100.00;95118.72;4969035;28;105168;-59
2023/03/07 01:38:45;;;;;;;12.03;8.87;;;;;;;3.43;100.00;95124.63;4971832;28;105173;-59
2023/03/07 01:41:12;;;;;;;11.63;8.70;;;;;;;3.44;100.00;95125.44;4969048;28;104821;-59
2023/03/07 01:43:40;;;;;;;11.67;8.77;;;;;;;3.46;100.00;95120.72;4968240;28;105028;-59
2023/03/07 01:46:33;;;;;;;11.83;8.43;;;;;;;3.47;100.00;95122.31;4969124;28;101757;-59
2023/03/07 01:49:03;;;;;;;12.00;8.30;;;;;;;3.47;100.00;95115.25;4969070;28;105268;-59
2023/03/07 01:51:36;;;;;;;11.17;8.53;;;;;;;3.50;100.00;95119.22;4967803;28;105020;-59
2023/03/07 01:54:06;;;;;;;12.03;8.40;;;;;;;3.49;100.00;95110.53;4968937;28;101755;-59
2023/03/07 01:56:35;;;;;;;12.03;8.10;;;;;;;3.55;100.00;95114.06;4968929;28;105395;-59
2023/03/07 01:59:03;;;;;;;10.83;8.07;;;;;;;3.43;100.00;95113.31;4969632;28;102535;-59
2023/03/07 02:01:30;;;;;;;11.60;7.60;;;;;;;3.43;100.00;95108.06;4971544;28;101853;-59
2023/03/07 02:04:03;;;;;;;11.73;8.50;;;;;;;3.44;100.00;95105.19;4967998;28;104327;-59
2023/03/07 02:06:33;;;;;;;10.23;7.40;;;;;;;3.42;100.00;95101.22;4968441;28;101835;-59
2023/03/07 02:09:02;;;;;;;11.70;7.77;;;;;;;3.43;100.00;95097.53;4968730;28;105224;-59
2023/03/07 02:11:30;;;;;;;13.57;8.13;;;;;;;3.46;100.00;95097.09;4967952;28;105251;-59
2023/03/07 02:13:59;;;;;;;10.33;8.07;;;;;;;3.48;100.00;95102.88;4968521;28;102069;-59
2023/03/07 02:16:26;;;;;;;12.60;8.13;;;;;;;3.49;100.00;95096.63;4968694;28;105556;-59
2023/03/07 02:18:54;;;;;;;10.80;7.73;;;;;;;3.45;100.00;95104.16;4972755;28;102719;-60
2023/03/07 02:21:32;;;;;;;11.53;7.47;;;;;;;3.46;100.00;95094.44;4975148;28;101860;-60
2023/03/07 02:24:11;;;;;;;11.87;7.60;;;;;;;3.48;100.00;95097.63;4971260;28;105349;-59
2023/03/07 02:26:44;;;;;;;10.47;7.07;;;;;;;3.42;100.00;95088.06;4971666;28;101781;-60
2023/03/07 02:29:13;;;;;;;10.23;7.60;;;;;;;3.35;100.00;95092.69;4971804;28;103687;-60
2023/03/07 02:31:43;;;;;;;10.97;8.30;;;;;;;3.07;100.00;95082.22;4971291;28;103915;-59
2023/03/07 02:34:22;;;;;;;12.60;8.17;;;;;;;3.16;100.00;95075.56;4972072;28;101887;-59
2023/03/07 02:36:57;;;;;;;11.00;7.90;;;;;;;2.94;100.00;95082.47;4971516;28;105461;-59
2023/03/07 02:39:28;;;;;;;13.37;8.83;;;;;;;2.81;100.00;95088.03;4971041;28;105481;-60
2023/03/07 02:42:03;;;;;;;13.13;9.00;;;;;;;2.56;100.00;95090.94;4971716;28;101847;-59
2023/03/07 02:44:43;;;;;;;14.90;9.97;;;;;;;2.55;100.00;95091.19;4974493;28;105288;-59
2023/03/07 02:47:11;;;;;;;13.87;9.33;;;;;;;2.44;100.00;95089.38;4970379;28;102031;-60
2023/03/07 02:49:38;;;;;;;14.80;10.23;;;;;;;2.48;100.00;95096.56;4971395;28;105251;-60
2023/03/07 02:52:05;;;;;;;15.13;10.03;;;;;;;2.41;100.00;95098.50;4969788;28;105737;-60
2023/03/07 02:54:32;;;;;;;13.37;9.93;;;;;;;2.42;100.00;95091.44;4970339;28;101920;-60
2023/03/07 02:57:01;;;;;;;14.17;10.27;;;;;;;2.36;100.00;95095.00;4971474;28;105003;-59
2023/03/07 02:59:28;;;;;;;14.63;10.70;;;;;;;2.32;100.00;95092.03;4969973;28;105214;-60
2023/03/07 03:01:55;;;;;;;16.10;10.50;;;;;;;2.22;100.00;95096.25;4969951;28;101875;-60
2023/03/07 03:04:22;;;;;;;15.40;10.70;;;;;;;2.16;100.00;95098.00;4970323;28;104940;-60
2023/03/07 03:06:49;;;;;;;14.53;11.43;;;;;;;2.20;100.00;95098.31;4973080;28;106089;-60
2023/03/07 03:09:17;;;;;;;17.03;11.40;;;;;;;2.15;100.00;95101.66;4970283;28;105191;-60
2023/03/07 03:11:43;;;;;;;15.03;10.90;;;;;;;2.06;100.00;95100.38;4969523;28;102832;-59
2023/03/07 03:14:12;;;;;;;16.30;10.90;;;;;;;2.10;100.00;95095.47;4970235;28;102015;-59
2023/03/07 03:16:40;;;;;;;17.60;11.60;;;;;;;2.06;100.00;95102.19;4970142;28;104801;-60
2023/03/07 03:19:07;;;;;;;17.37;10.97;;;;;;;2.12;100.00;95101.28;4970792;28;102964;-60
2023/03/07 03:21:34;;;;;;;16.57;11.07;;;;;;;1.93;100.00;95100.63;4971382;28;101809;-60
2023/03/07 03:24:05;;;;;;;18.50;11.30;;;;;;;1.87;100.00;95106.75;4970162;28;105541;-60
2023/03/07 03:26:32;;;;;;;17.03;10.97;;;;;;;1.81;100.00;95101.66;4969416;28;105333;-60
2023/03/07 03:28:59;;;;;;;17.93;10.93;;;;;;;1.92;100.00;95098.22;4972855;28;101855;-59
2023/03/07 03:31:31;;;;;;;14.77;10.70;;;;;;;1.96;100.00;95096.72;4969194;28;105496;-59
2023/03/07 03:33:59;;;;;;;17.80;11.30;;;;;;;2.00;100.00;95101.31;4969903;28;101900;-60
2023/03/07 03:36:28;;;;;;;18.80;11.17;;;;;;;1.98;100.00;95097.31;4969666;28;105173;-60
2023/03/07 03:39:00;;;;;;;15.93;10.97;;;;;;;1.98;100.00;95102.56;4969132;28;105360;-60
2023/03/07 03:41:27;;;;;;;16.37;11.57;;;;;;;1.92;100.00;95103.47;4969705;28;101830;-60
2023/03/07 03:43:56;;;;;;;14.87;10.87;;;;;;;1.88;100.00;95103.13;4969677;28;104916;-60
2023/03/07 03:46:25;;;;;;;20.73;11.30;;;;;;;1.95;100.00;95100.38;4969085;28;104993;-60
2023/03/07 03:48:54;;;;;;;18.07;11.30;;;;;;;1.85;100.00;95100.16;4969353;28;101979;-59
2023/03/07 03:51:24;;;;;;;15.50;10.73;;;;;;;1.92;100.00;95104.25;4972302;28;104921;-59
2023/03/07 03:53:53;;;;;;;14.30;10.30;;;;;;;1.93;100.00;95099.81;4969582;28;101773;-59
2023/03/07 03:56:23;;;;;;;18.00;10.43;;;;;;;1.86;100.00;95097.31;4969475;28;105738;-60
2023/03/07 03:58:51;;;;;;;14.97;10.57;;;;;;;1.90;100.00;95105.50;4968881;28;104978;-59
2023/03/07 04:01:19;;;;;;;14.77;10.33;;;;;;;1.94;100.00;95107.47;4968977;28;101869;-60
2023/03/07 04:03:47;;;;;;;20.03;11.27;;;;;;;1.90;100.00;95103.69;4969072;28;104906;-59
2023/03/07 04:06:19;;;;;;;14.73;10.03;;;;;;;1.83;100.00;95102.22;4968567;28;105699;-60
2023/03/07 04:08:46;;;;;;;16.50;10.63;;;;;;;1.83;100.00;95107.44;4969286;28;101856;-59
2023/03/07 04:11:13;;;;;;;15.53;10.43;;;;;;;1.86;100.00;95099.16;4969239;28;105543;-59
2023/03/07 04:13:40;;;;;;;15.37;10.13;;;;;;;1.89;100.00;95101.28;4971726;28;101927;-59
2023/03/07 04:16:08;;;;;;;15.33;10.10;;;;;;;1.93;100.00;95098.00;4969079;28;105279;-60
2023/03/07 04:18:36;;;;;;;13.00;9.80;;;;;;;1.85;100.00;95098.34;4968442;28;105454;-60
2023/03/07 04:21:04;;;;;;;13.33;9.70;;;;;;;1.79;100.00;95088.75;4970027;28;101955;-60
2023/03/07 04:23:34;;;;;;;13.67;9.57;;;;;;;1.81;100.00;95091.94;4969958;28;106432;-60
2023/03/07 04:26:03;;;;;;;13.10;9.27;;;;;;;1.87;100.00;95090.25;4969722;28;105469;-60
2023/03/07 04:28:43;;;;;;;21.83;16.33;;;;;;;1.87;100.00;95091.03;4969796;28;101832;-60
2023/03/07 04:31:16;;;;;;;38.37;32.50;;;;;;;1.86;100.00;95084.19;4968698;28;105064;-60
2023/03/07 04:33:45;;;;;;;44.83;32.23;;;;;;;1.91;100.00;95081.69;4971775;28;105438;-60
2023/03/07 04:36:12;;;;;;;15.57;11.83;;;;;;;1.96;100.00;95086.25;4968940;28;104910;-60
2023/03/07 04:38:41;;;;;;;22.60;16.40;;;;;;;1.99;100.00;95085.81;4969588;28;102472;-60
2023/03/07 04:41:08;;;;;;;27.23;20.90;;;;;;;2.05;100.00;95079.63;4967906;28;101988;-60
2023/03/07 04:43:35;;;;;;;19.43;14.47;;;;;;;2.11;100.00;95086.59;4968842;28;104974;-60
2023/03/07 04:46:02;;;;;;;15.83;12.30;;;;;;;2.09;100.00;95078.16;4968160;28;105313;-60
2023/03/07 04:48:29;;;;;;;12.40;8.73;;;;;;;2.09;100.00;95073.69;4968613;28;101820;-60
2023/03/07 04:50:56;;;;;;;10.80;8.10;;;;;;;2.14;100.00;95080.91;4970812;28;102278;-60
2023/03/07 04:53:24;;;;;;;11.57;8.27;;;;;;;2.15;100.00;95080.66;4968931;28;105622;-60
2023/03/07 04:55:57;;;;;;;13.40;8.83;;;;;;;2.17;100.00;95080.41;4972809;28;101770;-60
2023/03/07 04:58:24;;;;;;;11.60;8.63;;;;;;;2.20;100.00;95070.25;4968992;28;105056;-60
2023/03/07 05:00:52;;;;;;;12.57;9.03;;;;;;;2.24;100.00;95071.41;4969046;28;101988;-60
2023/03/07 05:03:18;;;;;;;14.47;8.97;;;;;;;2.24;100.00;95068.00;4971103;28;102328;-60
2023/03/07 05:05:45;;;;;;;11.07;7.83;;;;;;;2.24;100.00;95078.50;4968594;28;105904;-60
2023/03/07 05:08:12;;;;;;;11.37;8.17;;;;;;;2.27;100.00;95072.75;4969461;28;101913;-59
2023/03/07 05:10:40;;;;;;;16.73;10.00;;;;;;;2.29;100.00;95068.09;4969410;28;105382;-60
2023/03/07 05:13:09;;;;;;;12.87;8.83;;;;;;;2.34;100.00;95066.38;4967680;28;105473;-60
2023/03/07 05:15:37;;;;;;;12.20;7.83;;;;;;;2.31;100.00;95063.41;4969231;28;101985;-60
2023/03/07 05:18:04;;;;;;;11.97;8.30;;;;;;;2.29;100.00;95063.63;4971903;28;105256;-59
2023/03/07 05:20:32;;;;;;;11.10;8.47;;;;;;;2.31;100.00;95066.03;4970609;28;101804;-60
2023/03/07 05:22:59;;;;;;;13.17;8.83;;;;;;;2.22;100.00;95065.59;4969121;28;104800;-60
2023/03/07 05:25:27;;;;;;;20.93;14.17;;;;;;;2.05;100.00;95061.28;4968565;28;103754;-60
2023/03/07 05:27:54;;;;;;;16.40;10.80;;;;;;;2.06;100.00;95057.63;4968202;28;101900;-60
2023/03/07 05:30:22;;;;;;;13.00;9.00;;;;;;;2.17;100.00;95064.69;4967875;28;104848;-60
2023/03/07 05:32:50;;;;;;;13.30;8.10;;;;;;;2.20;100.00;95059.00;4968368;28;105368;-60
2023/03/07 05:35:19;;;;;;;13.93;9.53;;;;;;;2.25;100.00;95051.22;4969203;28;101760;-60
2023/03/07 05:37:46;;;;;;;14.03;8.73;;;;;;;2.21;100.00;95055.34;4969076;28;105066;-60
2023/03/07 05:40:14;;;;;;;16.60;10.63;;;;;;;2.17;100.00;95055.00;4971585;28;105465;-60
2023/03/07 05:43:02;;;;;;;13.77;8.83;;;;;;;2.21;100.00;95050.09;4968232;28;105897;-60
2023/03/07 05:45:30;;;;;;;16.00;9.63;;;;;;;2.23;100.00;95048.03;4968529;28;105494;-59
2023/03/07 05:47:59;;;;;;;13.73;8.93;;;;;;;2.11;100.00;95055.94;4969300;28;101777;-61
2023/03/07 05:50:26;;;;;;;16.20;9.30;;;;;;;2.18;100.00;95058.44;4969037;28;105547;-60
2023/03/07 05:52:55;;;;;;;17.33;9.37;;;;;;;2.13;100.00;95050.47;4971914;28;105619;-60
2023/03/07 05:55:24;;;;;;;16.00;9.77;;;;;;;2.02;100.00;95052.06;4973003;28;101674;-59
2023/03/07 05:57:51;;;;;;;14.90;9.97;;;;;;;1.98;100.00;95053.53;4972774;28;105406;-59
2023/03/07 06:00:19;;;;;;;15.40;10.03;;;;;;;1.87;100.00;95050.94;4971069;28;105270;-59
2023/03/07 06:03:06;;;;;;;15.53;10.90;;;;;;;1.84;100.00;95059.25;4974765;28;101874;-59
2023/03/07 06:05:34;;;;;;;26.77;10.90;;;;;;;1.78;100.00;95054.91;4970725;28;104980;-59
2023/03/07 06:08:02;;;;;;;15.67;10.23;;;;;;;1.79;100.00;95057.31;4972835;28;101759;-59
2023/03/07 06:10:29;;;;;;;17.57;10.93;;;;;;;1.69;100.00;95051.06;4971446;28;105211;-59
2023/03/07 06:12:59;;;;;;;20.63;10.23;;;;;;;1.77;100.00;95058.56;4971971;28;102645;-59
2023/03/07 06:15:26;;;;;;;18.07;11.20;;;;;;;1.79;100.00;95051.28;4971343;28;101935;-59
2023/03/07 06:18:00;;;;;;;18.40;11.03;;;;;;;1.89;100.00;95052.31;4971258;28;105190;-59
2023/03/07 06:20:28;;;;;;;16.23;11.40;;;;;;;1.96;100.00;95062.66;4970546;28;103984;-59
2023/03/07 06:23:17;;;;;;;16.37;11.60;;;;;;;1.87;100.00;95054.34;4975818;28;101825;-59
2023/03/07 06:25:45;;;;;;;18.40;10.63;;;;;;;1.88;100.00;95055.16;4970530;28;104102;-60
2023/03/07 06:28:13;;;;;;;19.00;10.47;;;;;;;1.94;100.00;95049.00;4970918;28;101985;-59
2023/03/07 06:30:40;;;;;;;17.17;11.37;;;;;;;2.05;100.00;95051.59;4971049;28;105306;-60
2023/03/07 06:33:09;;;;;;;17.57;11.77;;;;;;;2.08;100.00;95051.13;4971824;28;102549;-59
2023/03/07 06:35:40;;;;;;;20.30;13.57;;;;;;;1.99;100.00;95047.28;4971007;28;101934;-59
2023/03/07 06:38:07;;;;;;;21.70;15.20;;;;;;;2.13;100.00;95053.09;4970970;28;105684;-60
2023/03/07 06:40:34;;;;;;;21.17;13.87;;;;;;;2.22;100.00;95051.69;4970533;28;105309;-60
2023/03/07 06:43:11;;;;;;;19.10;12.97;;;;;;;2.19;100.00;95054.78;4971079;28;101969;-60
2023/03/07 06:45:38;;;;;;;18.70;11.67;;;;;;;2.36;100.00;95063.53;4973624;28;104921;-60
2023/03/07 06:48:06;;;;;;;17.17;11.97;;;;;;;2.31;100.00;95058.97;4970381;28;102033;-60
2023/03/07 06:50:33;;;;;;;17.27;11.57;;;;;;;2.24;100.00;95058.28;4970579;28;104772;-60
2023/03/07 06:53:02;;;;;;;17.97;10.17;;;;;;;2.19;100.00;95058.19;4969858;28;106094;-60
2023/03/07 06:55:29;;;;;;;17.43;10.80;;;;;;;2.29;100.00;95052.38;4970676;28;102057;-60
2023/03/07 06:57:56;;;;;;;18.47;11.33;;;;;;;2.32;100.00;95051.88;4971795;28;102806;-60
2023/03/07 07:00:22;;;;;;;16.53;11.07;;;;;;;2.43;100.00;95037.94;4971141;28;102476;-60
2023/03/07 07:02:50;;;;;;;15.90;10.30;;;;;;;2.50;100.00;95042.03;4969188;28;101901;-60
2023/03/07 07:05:17;;;;;;;15.80;11.17;;;;;;;2.72;100.00;95048.22;4969932;28;105373;-60
2023/03/07 07:07:45;;;;;;;17.97;11.13;;;;;;;2.85;100.00;95044.53;4973221;28;105016;-60
2023/03/07 07:10:14;;;;;;;15.87;9.67;;;;;;;2.88;100.00;95046.66;4970156;28;105625;-60
2023/03/07 07:12:41;;;;;;;15.97;10.17;;;;;;;2.99;100.00;95053.69;4970234;28;105488;-60
2023/03/07 07:15:09;;;;;;;15.83;10.57;;;;;;;2.86;100.00;95044.31;4970236;28;101874;-60
2023/03/07 07:17:37;;;;;;;16.70;10.27;;;;;;;2.78;100.00;95051.75;4970379;28;105853;-60
2023/03/07 07:20:07;;;;;;;17.63;11.17;;;;;;;2.98;100.00;95047.66;4969612;28;105816;-60
2023/03/07 07:22:34;;;;;;;15.10;11.00;;;;;;;2.94;100.00;95054.41;4970078;28;102038;-60
2023/03/07 07:25:01;;;;;;;15.30;10.70;;;;;;;3.03;100.00;95060.06;4970122;28;105588;-60
2023/03/07 07:27:29;;;;;;;15.67;10.13;;;;;;;3.14;100.00;95051.34;4971131;28;102682;-60
2023/03/07 07:29:56;;;;;;;13.83;10.03;;;;;;;3.18;100.00;95052.47;4973544;28;101845;-60
2023/03/07 07:32:23;;;;;;;14.70;10.13;;;;;;;3.36;100.00;95049.63;4969538;28;105981;-60
2023/03/07 07:34:50;;;;;;;14.27;9.57;;;;;;;3.34;100.00;95043.81;4970210;28;101941;-60
2023/03/07 07:37:17;;;;;;;15.10;9.77;;;;;;;3.59;100.00;95044.19;4970999;28;105725;-60
2023/03/07 07:39:44;;;;;;;12.93;8.93;;;;;;;3.68;100.00;95048.03;4967324;28;105340;-60
2023/03/07 07:42:11;;;;;;;15.90;10.33;;;;;;;3.62;100.00;95039.28;4969207;28;102724;-61
2023/03/07 07:45:11;;;;;;;17.13;10.17;;;;;;;3.86;100.00;95040.69;4970089;28;104917;-60
2023/03/07 07:47:38;;;;;;;19.67;10.23;;;;;;;3.88;100.00;95038.59;4980989;28;105193;-61
2023/03/07 07:50:06;;;;;;;16.37;10.07;;;;;;;4.05;100.00;95036.72;4969094;28;101868;-62
2023/03/07 07:52:53;;;;;;;15.63;9.47;;;;;;;4.08;100.00;95036.25;4980559;28;104913;-60
2023/03/07 07:55:21;;;;;;;18.37;10.17;;;;;;;4.16;100.00;95045.56;4990235;28;101948;-60
2023/03/07 07:57:48;;;;;;;17.30;9.93;;;;;;;4.21;100.00;95045.63;4971915;28;105216;-60
2023/03/07 08:00:20;;;;;;;14.87;9.90;;;;;;;4.31;100.00;95041.28;4961671;28;104282;-60
2023/03/07 08:02:49;;;;;;;13.37;9.43;;;;;;;4.46;100.00;95040.69;4988389;28;102011;-60
2023/03/07 08:05:17;;;;;;;14.37;9.83;;;;;;;4.30;100.00;95034.44;4991630;28;102844;-60
2023/03/07 08:07:44;;;;;;;16.73;9.13;;;;;;;4.31;100.00;95033.41;4972588;28;102808;-60
2023/03/07 08:10:14;;;;;;;15.07;9.77;;;;;;;4.38;100.00;95034.03;4968774;28;101941;-60
2023/03/07 08:13:04;;;;;;;16.40;10.20;;;;;;;4.52;100.00;95029.97;4970049;28;106454;-60
2023/03/07 08:15:33;;;;;;;14.80;9.50;;;;;;;4.60;100.00;95029.56;4954171;28;102528;-60
2023/03/07 08:17:59;;;;;;;16.60;9.87;;;;;;;4.87;100.00;95034.84;4950537;28;105517;-61
2023/03/07 08:20:26;;;;;;;13.37;9.30;;;;;;;5.03;100.00;95037.38;4963404;28;102581;-60
2023/03/07 08:23:04;;;;;;;19.03;8.40;;;;;;;5.12;100.00;95032.47;4969783;28;101826;-60
2023/03/07 08:25:31;;;;;;;12.37;9.17;;;;;;;5.27;100.00;95035.22;4971667;28;102336;-60
2023/03/07 08:27:58;;;;;;;20.23;8.60;;;;;;;5.29;100.00;95033.16;4970711;28;102515;-60
2023/03/07 08:30:26;;;;;;;12.53;8.63;;;;;;;5.38;100.00;95024.53;4962096;28;102080;-60
2023/03/07 08:33:21;;;;;;;13.43;9.03;;;;;;;5.67;100.00;95025.03;4970951;28;102332;-60
2023/03/07 08:35:48;;;;;;;14.27;9.23;;;;;;;5.61;100.00;95029.47;4972578;28;105815;-60
2023/03/07 08:38:15;;;;;;;13.57;9.20;;;;;;;5.55;100.00;95019.94;4970880;28;102850;-61
2023/03/07 08:40:42;;;;;;;15.57;9.60;;;;;;;5.79;100.00;95031.69;4968930;28;103633;-61
2023/03/07 08:43:47;;;;;;;14.33;10.00;;;;;;;6.08;100.00;95026.91;4971088;28;101835;-61
2023/03/07 08:46:15;;;;;;;13.47;9.27;;;;;;;6.20;100.00;95024.84;4968831;28;103689;-60
2023/03/07 08:48:43;;;;;;;12.33;8.73;;;;;;;6.07;100.00;95031.41;4986255;28;102598;-60
2023/03/07 08:51:13;;;;;;;15.27;9.60;;;;;;;6.00;99.03;95022.13;4971503;28;101946;-60
2023/03/07 08:53:47;;;;;;;14.93;9.77;;;;;;;5.84;96.37;95023.84;4970951;28;102287;-61
2023/03/07 08:56:16;;;;;;;12.73;8.63;;;;;;;5.91;87.50;95019.16;4970559;28;102557;-60
2023/03/07 08:58:43;;;;;;;11.90;8.70;;;;;;;5.76;87.21;95019.03;4974060;28;101814;-62
2023/03/07 09:01:11;;;;;;;13.03;9.00;;;;;;;5.82;86.69;95014.59;4969406;28;102637;-60
2023/03/07 09:03:39;;;;;;;12.03;8.13;;;;;;;5.85;83.30;95024.66;4968509;28;101752;-60
2023/03/07 09:06:08;;;;;;;12.33;8.67;;;;;;;5.98;83.70;95013.66;4969125;28;104089;-61
2023/03/07 09:08:35;;;;;;;14.30;8.63;;;;;;;6.20;80.19;95009.03;4968574;28;105690;-61
2023/03/07 09:11:04;;;;;;;12.63;8.77;;;;;;;6.16;75.69;95024.56;4969077;28;101971;-60
2023/03/07 09:13:38;;;;;;;14.63;8.77;;;;;;;6.25;73.71;94998.50;4970618;28;102374;-60
2023/03/07 09:16:06;;;;;;;12.80;8.73;;;;;;;6.35;75.69;95001.19;4968618;28;105254;-61
2023/03/07 09:18:33;;;;;;;14.43;8.90;;;;;;;6.59;74.60;94995.22;4965987;28;101917;-62
2023/03/07 09:20:59;;;;;;;12.57;8.60;;;;;;;6.81;74.19;94987.09;4963748;28;105521;-63
2023/03/07 09:23:39;;;;;;;11.43;7.90;;;;;;;6.71;70.44;94981.78;4981323;28;101963;-61
2023/03/07 09:26:06;;;;;;;10.83;7.93;;;;;;;6.84;70.42;94979.44;4989761;28;102875;-62
2023/03/07 09:28:33;;;;;;;11.53;8.83;;;;;;;6.71;69.36;94976.50;4988475;28;105968;-62
2023/03/07 09:31:07;;;;;;;15.03;9.87;;;;;;;7.04;67.26;94970.75;4975197;28;101871;-62
2023/03/07 09:36:56;;;;;;;12.67;8.80;;;;;;;6.96;65.14;94969.41;4948669;28;105706;-63
2023/03/07 09:39:24;;;;;;;12.60;8.40;;;;;;;6.85;65.61;94962.53;4954618;28;101881;-62
2023/03/07 09:41:59;;;;;;;12.23;8.97;;;;;;;7.05;66.53;94967.84;4970274;28;102997;-63
2023/03/07 09:44:57;;;;;;;12.97;8.67;;;;;;;7.07;65.95;94965.72;4973535;28;102487;-61
2023/03/07 09:47:58;;;;;;;12.20;8.70;;;;;;;7.54;62.98;94954.91;4957496;28;105293;-64
2023/03/07 09:50:32;;;;;;;12.97;8.27;;;;;;;7.21;60.83;94952.78;4959197;28;102516;-61
2023/03/07 09:53:25;;;;;;;12.17;7.97;;;;;;;7.20;62.96;94953.84;4982376;28;101631;-60
2023/03/07 09:55:55;;;;;;;10.63;8.13;;;;;;;6.81;62.99;94963.31;4954328;28;105265;-61
2023/03/07 09:58:24;;;;;;;13.70;8.17;;;;;;;6.69;62.87;94957.47;4979418;28;102546;-60
2023/03/07 10:00:59;;;;;;;11.47;8.40;;;;;;;6.63;63.08;94947.94;4969438;28;101938;-61
2023/03/07 10:04:04;;;;;;;11.23;7.97;;;;;;;6.80;63.44;94953.78;4968695;28;105483;-60
2023/03/07 10:06:37;;;;;;;14.07;8.60;;;;;;;6.48;66.25;94942.59;4967860;28;105777;-60
2023/03/07 10:09:07;;;;;;;14.07;8.40;;;;;;;6.67;64.59;94941.09;4972650;28;101718;-60
2023/03/07 10:11:52;;;;;;;12.70;8.40;;;;;;;6.63;66.46;94930.25;4967745;28;105667;-60
2023/03/07 10:14:57;;;;;;;12.30;7.67;;;;;;;6.86;65.32;94942.16;4966819;28;102827;-60
2023/03/07 10:17:44;;;;;;;11.70;8.33;;;;;;;6.55;63.67;94924.69;4939108;28;105572;-60
2023/03/07 10:20:19;;;;;;;11.77;8.60;;;;;;;6.63;65.36;94917.06;4960837;28;105753;-60
2023/03/07 10:22:57;;;;;;;14.17;8.73;;;;;;;6.92;64.91;94909.44;4965126;28;103186;-61
2023/03/07 10:25:28;;;;;;;11.43;8.53;;;;;;;6.77;63.35;94915.47;4950498;28;102490;-60
2023/03/07 10:28:01;;;;;;;12.63;8.80;;;;;;;6.88;64.47;94905.72;4949761;28;102570;-61
2023/03/07 10:30:31;;;;;;;11.80;8.73;;;;;;;6.85;61.90;94904.41;4958695;28;101709;-60
2023/03/07 10:33:01;;;;;;;12.70;8.30;;;;;;;7.03;61.24;94901.25;4967560;28;105121;-60
2023/03/07 10:35:40;;;;;;;10.63;7.97;;;;;;;7.14;60.81;94891.47;4948626;28;101876;-60
2023/03/07 10:38:18;;;;;;;11.57;8.93;;;;;;;7.58;59.81;94889.84;4971966;28;102579;-60
2023/03/07 10:40:50;;;;;;;11.83;8.33;;;;;;;7.58;57.60;94880.03;4976286;28;103833;-60
2023/03/07 10:43:51;;;;;;;11.53;8.83;;;;;;;7.36;58.60;94878.78;4972836;28;101966;-60
2023/03/07 10:46:19;;;;;;;11.97;8.40;;;;;;;7.73;58.64;94877.34;4971575;28;105339;-60
2023/03/07 10:48:51;;;;;;;11.63;8.30;;;;;;;8.12;55.77;94872.97;4972116;28;103064;-60
2023/03/07 10:51:31;;;;;;;14.23;9.33;;;;;;;8.38;56.92;94860.44;4967877;28;103008;-59
2023/03/07 10:54:17;;;;;;;11.30;8.37;;;;;;;8.52;54.80;94856.13;4956100;28;102425;-60
2023/03/07 10:57:03;;;;;;;13.23;8.70;;;;;;;8.53;54.71;94847.91;4968388;28;101979;-61
2023/03/07 10:59:31;;;;;;;13.30;8.90;;;;;;;8.80;54.41;94850.09;4974587;28;102843;-61
2023/03/07 11:02:00;;;;;;;10.70;8.00;;;;;;;8.75;53.14;94850.94;4970070;28;105550;-61
2023/03/07 11:04:43;;;;;;;11.93;8.53;;;;;;;8.27;53.84;94843.03;4971037;28;101976;-61
2023/03/07 11:07:26;;;;;;;13.77;8.50;;;;;;;8.44;52.55;94832.84;4979715;28;102568;-61
2023/03/07 11:09:54;;;;;;;12.13;8.40;;;;;;;8.02;53.49;94835.97;4987939;28;105700;-60
2023/03/07 11:12:22;;;;;;;14.33;9.23;;;;;;;8.36;53.13;94830.78;4971000;28;101936;-61
2023/03/07 11:14:54;;;;;;;13.50;8.80;;;;;;;8.32;56.00;94816.50;4972220;28;102618;-60
2023/03/07 11:17:23;;;;;;;11.53;8.63;;;;;;;7.88;53.92;94824.41;4975210;28;102846;-61
2023/03/07 11:19:53;;;;;;;14.77;9.33;;;;;;;8.58;53.38;94812.63;4971908;28;102536;-61
2023/03/07 11:22:24;;;;;;;12.50;8.70;;;;;;;8.77;53.45;94805.63;4971636;28;103035;-60
2023/03/07 11:24:57;;;;;;;11.23;8.40;;;;;;;8.91;53.75;94801.25;4970752;28;101909;-60
2023/03/07 11:27:36;;;;;;;13.63;9.20;;;;;;;9.51;53.94;94787.41;4987371;28;105526;-60
2023/03/07 11:30:23;;;;;;;12.97;8.90;;;;;;;8.83;51.18;94781.44;4988282;28;102494;-60
2023/03/07 11:33:17;;;;;;;13.60;9.23;;;;;;;8.77;52.04;94773.81;4970517;28;101861;-60
2023/03/07 11:35:58;;;;;;;14.00;9.97;;;;;;;9.09;50.51;94771.38;4954207;28;104955;-60
2023/03/07 11:38:51;;;;;;;13.17;9.30;;;;;;;9.23;50.90;94767.81;4976910;28;105361;-61